Portada
METAR-TAF:

METAR-TAF

Aeroports :

Jabalpur, Índia

latitud: 23-10-54N, longitud: 80-03-31E, altitud: 495 m

Observació

L'informe es va fer fa 1 hora i 17 minuts, a les 10:30 UTC
Vent 6 kt del Oest
Temperatura 41°C
Humitat 18%
Pressió 1005 hPa
Visibilitat: 4000 m
Núvols disperses a una alçada de 3000 ft
calitja

METAR: VAJB 251030Z 27006KT 4000 HZ SCT030 41/12 Q1005

Hora: 17:17 (11:47 UTC)

Pronòstic

L'informe es va fer fa 47 minuts, a les 11:00 UTC
Pronòstic vàlid del 25 a les 12 UTC al 25 a les 21 UTC
Vent 6 kt del Oest/Nord-Oest
Visibilitat: 4000 m
calitja

TAF: VAJB 251100Z 2512/2521 29006KT 4000 HZ NSC

Observacions i pronòstics meteorològics de més de 4000 aeroports (METAR i TAF).

Les estacions disponibles són els punts grocs i vermells al mapa.

Posi el ratolí al punt desitjat per veure el nom de l'estació.

Feu clic per veure les observacions i els pronòstics meteorològics.

Per canviar el mapa: feu clic els botons verds amb una creu de color negre per apropar; al botó verd amb un guió per allunyar la imatge; o en les fletxes verdes per a mapes adjacents.


METAR-TAF: